Time;durP1;ratioP1;P1;durP2;ratioP2;P2;SDS_P1;SDS_P2;PMS_P1;PMS_P2;Temp;Humidity;BMP_temperature;BMP_pressure;BME280_temperature;BME280_humidity;BME280_pressure;Samples;Min_cycle;Max_cycle;Signal;HPM_P1;HPM_P2
2024/03/31 00:02:44;;;;;;;;;;;;;;;23.40;43.55;92514.47;4953715;28;7175;-58
2024/03/31 00:05:28;;;;;;;;;;;;;;;23.41;43.37;92515.94;4973147;28;7193;-58
2024/03/31 00:07:54;;;;;;;;;;;;;;;23.37;43.15;92499.84;4957199;28;8979;-58
2024/03/31 00:10:58;;;;;;;;;;;;;;;23.39;42.99;92491.78;4972608;28;7141;-58
2024/03/31 00:13:36;;;;;;;;;;;;;;;23.37;43.58;92494.34;4934498;29;7108;-69
2024/03/31 00:16:06;;;;;;;;;;;;;;;23.37;43.39;92494.34;4932047;29;7210;-69
2024/03/31 00:18:32;;;;;;;;;;;;;;;23.28;43.07;92481.09;4934570;29;7156;-69
2024/03/31 00:21:01;;;;;;;;;;;;;;;23.33;43.31;92482.22;4952734;29;8880;-69
2024/03/31 00:23:54;;;;;;;;;;;;;;;23.35;43.00;92490.69;4953708;29;8916;-58
2024/03/31 00:26:30;;;;;;;;;;;;;;;23.30;43.47;92477.81;4950299;29;7287;-58
2024/03/31 00:29:12;;;;;;;;;;;;;;;23.33;43.41;92483.00;4977560;28;9282;-58
2024/03/31 00:31:50;;;;;;;;;;;;;;;23.35;43.37;92469.47;5010734;28;7036;-58
2024/03/31 00:34:51;;;;;;;;;;;;;;;23.35;43.25;92452.28;4996256;28;7338;-58
2024/03/31 00:37:29;;;;;;;;;;;;;;;23.35;43.54;92438.56;4934328;29;9196;-58
2024/03/31 00:39:55;;;;;;;;;;;;;;;23.25;43.58;92428.06;4933138;29;7736;-58
2024/03/31 00:42:21;;;;;;;;;;;;;;;23.25;43.27;92433.53;4932983;29;7024;-58
2024/03/31 00:44:47;;;;;;;;;;;;;;;23.32;43.09;92453.31;4934221;29;8810;-58
2024/03/31 00:47:33;;;;;;;;;;;;;;;23.24;43.18;92456.78;4945148;29;7155;-58
2024/03/31 00:50:36;;;;;;;;;;;;;;;23.32;43.05;92445.09;4981927;28;7365;-58
2024/03/31 00:53:16;;;;;;;;;;;;;;;23.33;43.25;92449.31;4974309;28;7079;-58
2024/03/31 00:55:53;;;;;;;;;;;;;;;23.25;43.35;92430.81;4975752;28;9468;-58
2024/03/31 00:58:38;;;;;;;;;;;;;;;23.32;43.40;92428.63;4992219;28;7266;-58
2024/03/31 01:01:40;;;;;;;;;;;;;;;23.31;43.43;92440.91;4972522;28;9512;-58
2024/03/31 01:04:48;;;;;;;;;;;;;;;23.31;42.96;92425.19;4991701;28;7341;-58
2024/03/31 01:07:23;;;;;;;;;;;;;;;23.30;43.12;92434.66;4991719;28;7192;-58
2024/03/31 01:10:18;;;;;;;;;;;;;;;23.31;43.62;92418.94;4992013;28;7203;-58
2024/03/31 01:12:49;;;;;;;;;;;;;;;23.21;43.16;92405.75;4976369;28;7099;-59
2024/03/31 01:15:17;;;;;;;;;;;;;;;23.28;43.24;92420.75;4993748;28;7370;-58
2024/03/31 01:17:46;;;;;;;;;;;;;;;23.21;43.27;92410.50;4976489;28;9503;-59
2024/03/31 01:20:14;;;;;;;;;;;;;;;23.25;43.29;92422.56;5009684;28;7036;-58
2024/03/31 01:22:45;;;;;;;;;;;;;;;23.27;43.02;92418.56;4991342;28;7100;-58
2024/03/31 01:25:13;;;;;;;;;;;;;;;23.30;43.15;92426.44;4975463;28;7620;-58
2024/03/31 01:27:39;;;;;;;;;;;;;;;23.30;43.62;92412.72;4982299;28;7660;-58
2024/03/31 01:30:21;;;;;;;;;;;;;;;23.25;43.33;92397.16;4980083;28;7913;-58
2024/03/31 01:33:03;;;;;;;;;;;;;;;23.25;43.22;92417.09;5008234;28;7190;-57
2024/03/31 01:35:58;;;;;;;;;;;;;;;23.31;43.48;92416.22;4995105;28;8665;-56
2024/03/31 01:38:34;;;;;;;;;;;;;;;23.31;42.76;92416.94;4979423;28;7397;-56
2024/03/31 01:41:09;;;;;;;;;;;;;;;23.24;43.10;92421.13;4981212;28;7933;-58
2024/03/31 01:44:05;;;;;;;;;;;;;;;23.31;43.61;92430.66;4976486;28;7034;-57
2024/03/31 01:47:03;;;;;;;;;;;;;;;23.31;43.36;92424.44;4995903;28;7492;-57
2024/03/31 01:49:55;;;;;;;;;;;;;;;23.30;43.49;92433.94;5033682;28;7342;-57
2024/03/31 01:52:37;;;;;;;;;;;;;;;23.25;43.33;92411.59;5056182;28;9719;-57
2024/03/31 01:55:21;;;;;;;;;;;;;;;23.29;43.32;92410.53;5056371;28;7123;-57
2024/03/31 01:58:22;;;;;;;;;;;;;;;23.30;43.10;92409.25;5045362;28;7092;-57
2024/03/31 02:01:08;;;;;;;;;;;;;;;23.29;43.05;92394.06;4977409;28;7443;-56
2024/03/31 02:03:58;;;;;;;;;;;;;;;23.27;42.97;92381.63;5009665;28;7031;-57
2024/03/31 02:06:34;;;;;;;;;;;;;;;23.29;43.16;92394.06;4975860;28;7061;-57
2024/03/31 02:09:26;;;;;;;;;;;;;;;23.30;43.56;92379.06;4975062;28;7301;-56
2024/03/31 02:12:06;;;;;;;;;;;;;;;23.29;43.19;92380.34;4975719;28;7354;-57
2024/03/31 02:14:47;;;;;;;;;;;;;;;23.30;43.25;92379.06;4989581;28;7127;-57
2024/03/31 02:18:00;;;;;;;;;;;;;;;23.30;43.40;92388.03;4977343;28;9075;-57
2024/03/31 02:20:28;;;;;;;;;;;;;;;23.22;43.29;92354.38;4958493;28;7303;-57
2024/03/31 02:22:56;;;;;;;;;;;;;;;23.27;43.34;92381.63;4965756;28;7006;-57
2024/03/31 02:25:22;;;;;;;;;;;;;;;23.24;43.46;92376.50;4945959;28;8827;-57
2024/03/31 02:28:25;;;;;;;;;;;;;;;23.28;43.45;92360.41;4949697;28;7332;-57
2024/03/31 02:31:29;;;;;;;;;;;;;;;23.26;43.74;92373.94;4890945;29;7576;-56
2024/03/31 02:33:57;;;;;;;;;;;;;;;23.19;43.36;92369.91;4853963;29;7844;-57
2024/03/31 02:36:34;;;;;;;;;;;;;;;23.21;43.24;92361.13;4879229;29;7023;-57
2024/03/31 02:39:04;;;;;;;;;;;;;;;23.25;43.91;92366.97;4876371;29;7384;-57
2024/03/31 02:41:46;;;;;;;;;;;;;;;23.25;43.44;92356.00;4877293;29;7565;-65
2024/03/31 02:44:22;;;;;;;;;;;;;;;23.28;43.58;92374.13;4876904;29;7024;-65
2024/03/31 02:46:59;;;;;;;;;;;;;;;23.28;43.30;92365.91;4876199;29;7212;-65
2024/03/31 02:49:27;;;;;;;;;;;;;;;23.22;43.26;92368.09;4878862;29;7027;-65
2024/03/31 02:52:07;;;;;;;;;;;;;;;23.29;43.47;92380.34;4879196;29;7248;-65
2024/03/31 02:54:48;;;;;;;;;;;;;;;23.29;43.44;92380.34;4879052;29;7035;-65
2024/03/31 02:57:26;;;;;;;;;;;;;;;23.23;43.41;92392.22;4891514;29;7003;-65
2024/03/31 02:59:56;;;;;;;;;;;;;;;23.17;43.22;92369.72;4897586;29;7106;-65
2024/03/31 03:02:23;;;;;;;;;;;;;;;23.29;43.49;92394.06;4897488;29;7371;-65
2024/03/31 03:04:59;;;;;;;;;;;;;;;23.22;43.15;92396.25;4997982;28;8989;-65
2024/03/31 03:07:58;;;;;;;;;;;;;;;23.29;43.29;92416.75;5047757;28;6995;-65
2024/03/31 03:10:38;;;;;;;;;;;;;;;23.22;43.44;92433.91;5011999;28;7578;-65
2024/03/31 03:13:04;;;;;;;;;;;;;;;23.28;43.47;92420.75;5011015;28;7205;-65
2024/03/31 03:15:31;;;;;;;;;;;;;;;23.25;43.67;92441.03;5010464;28;7161;-65
2024/03/31 03:17:57;;;;;;;;;;;;;;;23.26;43.58;92439.78;5008418;28;8941;-64
2024/03/31 03:20:23;;;;;;;;;;;;;;;23.27;43.16;92433.75;4994229;28;7151;-65
2024/03/31 03:22:57;;;;;;;;;;;;;;;23.28;43.40;92434.47;5011417;28;7620;-65
2024/03/31 03:25:23;;;;;;;;;;;;;;;23.28;43.55;92423.50;5012054;28;9427;-65
2024/03/31 03:28:34;;;;;;;;;;;;;;;23.30;43.39;92422.97;5012874;28;9145;-65
2024/03/31 03:31:04;;;;;;;;;;;;;;;23.30;43.33;92431.19;4954219;28;7263;-65
2024/03/31 03:33:40;;;;;;;;;;;;;;;23.21;43.52;92416.72;4972635;28;7049;-65
2024/03/31 03:36:15;;;;;;;;;;;;;;;23.24;43.32;92410.16;4973736;28;7428;-65
2024/03/31 03:38:53;;;;;;;;;;;;;;;23.29;43.71;92413.28;4970341;28;6935;-65
2024/03/31 03:41:19;;;;;;;;;;;;;;;23.24;43.60;92417.63;4968012;28;9565;-65
2024/03/31 03:43:47;;;;;;;;;;;;;;;23.25;43.38;92397.16;4960588;28;7231;-65
2024/03/31 03:46:19;;;;;;;;;;;;;;;23.23;43.03;92405.19;5015012;28;7765;-65
2024/03/31 03:48:57;;;;;;;;;;;;;;;23.23;43.41;92411.41;5032033;28;9104;-65
2024/03/31 03:51:39;;;;;;;;;;;;;;;23.25;43.25;92392.41;5035571;28;7051;-58
2024/03/31 03:54:20;;;;;;;;;;;;;;;23.29;43.50;92392.06;5033512;28;7179;-59
2024/03/31 03:57:24;;;;;;;;;;;;;;;23.32;43.14;92403.94;5028373;28;7047;-58
2024/03/31 03:59:53;;;;;;;;;;;;;;;23.31;43.52;92397.00;4976930;28;7218;-58
2024/03/31 04:02:20;;;;;;;;;;;;;;;23.30;43.20;92407.25;4982221;28;7252;-58
2024/03/31 04:04:48;;;;;;;;;;;;;;;23.30;43.44;92407.25;4961507;28;7112;-58
2024/03/31 04:07:37;;;;;;;;;;;;;;;23.32;43.15;92403.94;4966055;28;7091;-58
2024/03/31 04:10:16;;;;;;;;;;;;;;;23.30;43.57;92409.97;4992572;28;7050;-58
2024/03/31 04:12:42;;;;;;;;;;;;;;;23.24;43.26;92371.75;4992151;28;6860;-58
2024/03/31 04:15:08;;;;;;;;;;;;;;;23.28;43.57;92376.88;4992938;28;7115;-58
2024/03/31 04:17:38;;;;;;;;;;;;;;;23.32;43.11;92377.25;4987491;28;9164;-59
2024/03/31 04:20:05;;;;;;;;;;;;;;;23.22;43.53;92368.09;4976092;28;7471;-58
2024/03/31 04:22:36;;;;;;;;;;;;;;;23.19;43.45;92367.16;4992609;28;9084;-59
2024/03/31 04:25:08;;;;;;;;;;;;;;;23.24;43.47;92377.25;4975402;28;7587;-58
2024/03/31 04:27:53;;;;;;;;;;;;;;;23.23;43.65;92375.03;4976245;28;7038;-62
2024/03/31 04:30:27;;;;;;;;;;;;;;;23.18;43.87;92373.19;5014492;28;7885;-62
2024/03/31 04:32:58;;;;;;;;;;;;;;;23.24;43.67;92379.25;5039766;28;9077;-61
2024/03/31 04:36:13;;;;;;;;;;;;;;;23.32;43.59;92399.19;5042385;28;10191;-61
2024/03/31 04:38:43;;;;;;;;;;;;;;;23.27;43.62;92378.88;4982394;28;7054;-61
2024/03/31 04:41:09;;;;;;;;;;;;;;;23.30;43.56;92362.63;4992010;28;7501;-61
2024/03/31 04:43:48;;;;;;;;;;;;;;;23.24;43.67;92355.31;4988890;28;7543;-61
2024/03/31 04:46:16;;;;;;;;;;;;;;;23.31;43.45;92375.06;4993584;28;7099;-61
2024/03/31 04:48:56;;;;;;;;;;;;;;;23.34;43.52;92360.31;4991187;28;7136;-61
2024/03/31 04:51:51;;;;;;;;;;;;;;;23.41;43.31;92381.50;4978856;28;7444;-61
2024/03/31 04:54:25;;;;;;;;;;;;;;;23.37;44.06;92365.41;4909585;29;8230;-61
2024/03/31 04:56:51;;;;;;;;;;;;;;;23.39;43.82;92351.88;4907298;29;7465;-61
2024/03/31 04:59:28;;;;;;;;;;;;;;;23.42;43.64;92352.81;4919072;29;7020;-61
2024/03/31 05:01:54;;;;;;;;;;;;;;;23.40;43.37;92336.16;4917663;29;9431;-61
2024/03/31 05:04:21;;;;;;;;;;;;;;;23.42;43.44;92353.56;4915121;29;7024;-61
2024/03/31 05:06:47;;;;;;;;;;;;;;;23.43;43.27;92351.53;4934389;29;6917;-61
2024/03/31 05:09:43;;;;;;;;;;;;;;;23.43;43.54;92333.06;4916843;29;7316;-61
2024/03/31 05:12:21;;;;;;;;;;;;;;;23.42;43.54;92328.13;4843936;29;9560;-61
2024/03/31 05:15:16;;;;;;;;;;;;;;;23.44;43.93;92331.06;4868925;29;7479;-62
2024/03/31 05:18:16;;;;;;;;;;;;;;;23.42;43.53;92328.88;4872810;29;7100;-61
2024/03/31 05:20:53;;;;;;;;;;;;;;;23.43;43.70;92324.81;4877385;29;7400;-62
2024/03/31 05:23:23;;;;;;;;;;;;;;;23.42;44.15;92319.91;4860224;29;7070;-62
2024/03/31 05:25:50;;;;;;;;;;;;;;;23.37;43.30;92312.56;4861604;29;7481;-62
2024/03/31 05:28:41;;;;;;;;;;;;;;;23.38;42.76;92322.28;4862677;29;7262;-62
2024/03/31 05:31:09;;;;;;;;;;;;;;;23.32;43.45;92300.44;4891724;29;7278;-63
2024/03/31 05:33:44;;;;;;;;;;;;;;;23.38;43.66;92292.09;4896865;29;7013;-62
2024/03/31 05:36:35;;;;;;;;;;;;;;;23.37;43.34;92329.03;4895726;29;9335;-62
2024/03/31 05:39:17;;;;;;;;;;;;;;;23.34;43.26;92306.16;4888047;29;9455;-62
2024/03/31 05:42:03;;;;;;;;;;;;;;;23.39;43.56;92288.06;4898039;29;9707;-62
2024/03/31 05:44:48;;;;;;;;;;;;;;;23.38;43.92;92308.56;4891803;29;7236;-62
2024/03/31 05:47:27;;;;;;;;;;;;;;;23.32;43.77;92296.97;4885698;29;7053;-62
2024/03/31 05:49:52;;;;;;;;;;;;;;;23.34;43.46;92286.25;4917637;29;7285;-62
2024/03/31 05:52:28;;;;;;;;;;;;;;;23.38;43.65;92292.81;4946552;28;9088;-62
2024/03/31 05:55:03;;;;;;;;;;;;;;;23.39;44.03;92291.53;4975994;28;7153;-62
2024/03/31 05:57:29;;;;;;;;;;;;;;;23.38;43.80;92305.81;5028383;28;7028;-62
2024/03/31 05:59:57;;;;;;;;;;;;;;;23.42;44.18;92304.19;5072108;28;6962;-62
2024/03/31 06:02:28;;;;;;;;;;;;;;;23.42;44.38;92276.75;5054821;28;7261;-62
2024/03/31 06:04:57;;;;;;;;;;;;;;;23.39;44.09;92283.31;5050987;28;7032;-62
2024/03/31 06:07:53;;;;;;;;;;;;;;;23.47;43.96;92275.09;5056811;28;7367;-62
2024/03/31 06:10:21;;;;;;;;;;;;;;;23.42;44.44;92268.50;5004443;28;9345;-61
2024/03/31 06:12:47;;;;;;;;;;;;;;;23.45;44.34;92272.16;4975383;28;9448;-62
2024/03/31 06:15:32;;;;;;;;;;;;;;;23.49;44.54;92276.00;4960373;28;8823;-62
2024/03/31 06:18:00;;;;;;;;;;;;;;;23.50;43.46;92261.00;4975746;28;7177;-62
2024/03/31 06:20:25;;;;;;;;;;;;;;;23.45;43.16;92258.44;4968693;28;7323;-61
2024/03/31 06:22:53;;;;;;;;;;;;;;;23.34;43.54;92259.53;4978048;28;7255;-64
2024/03/31 06:25:19;;;;;;;;;;;;;;;23.33;43.79;92246.34;4976487;28;9574;-61
2024/03/31 06:28:18;;;;;;;;;;;;;;;23.43;43.64;92261.00;4977437;28;7187;-61
2024/03/31 06:30:59;;;;;;;;;;;;;;;23.43;44.40;92239.03;4995197;28;7075;-61
2024/03/31 06:33:25;;;;;;;;;;;;;;;23.42;43.64;92245.81;4974977;28;7272;-61
2024/03/31 06:36:10;;;;;;;;;;;;;;;23.52;44.53;92260.44;4995528;28;7293;-62
2024/03/31 06:38:44;;;;;;;;;;;;;;;23.49;44.35;92248.56;4989110;28;7249;-66
2024/03/31 06:41:26;;;;;;;;;;;;;;;23.41;44.14;92227.88;4996854;28;7249;-65
2024/03/31 06:44:03;;;;;;;;;;;;;;;23.39;44.17;92233.94;4974627;28;7042;-61
2024/03/31 06:46:32;;;;;;;;;;;;;;;23.43;44.27;92228.81;5013413;28;9406;-61
2024/03/31 06:49:10;;;;;;;;;;;;;;;23.47;44.02;92242.88;5054559;28;7275;-64
2024/03/31 06:51:42;;;;;;;;;;;;;;;23.51;44.06;92242.53;5055367;28;7256;-62
2024/03/31 06:54:09;;;;;;;;;;;;;;;23.48;44.34;92244.38;5067525;28;7030;-62
2024/03/31 06:56:39;;;;;;;;;;;;;;;23.51;44.06;92250.78;5054917;28;9057;-62
2024/03/31 06:59:07;;;;;;;;;;;;;;;23.46;44.38;92229.72;5076519;28;7632;-62
2024/03/31 07:01:43;;;;;;;;;;;;;;;23.49;44.39;92234.84;5050593;28;7305;-62
2024/03/31 07:04:49;;;;;;;;;;;;;;;23.51;44.04;92239.81;5056924;28;7666;-62
2024/03/31 07:07:16;;;;;;;;;;;;;;;23.50;44.42;92254.78;5051639;28;7209;-63
2024/03/31 07:09:59;;;;;;;;;;;;;;;23.51;43.93;92245.28;5057964;28;7257;-63
2024/03/31 07:12:26;;;;;;;;;;;;;;;23.47;44.04;92209.25;5047193;28;7063;-65
2024/03/31 07:14:52;;;;;;;;;;;;;;;23.49;44.30;92229.34;5033959;28;7046;-69
2024/03/31 07:17:33;;;;;;;;;;;;;;;23.46;44.54;92237.97;5066340;28;8637;-69
2024/03/31 07:19:58;;;;;;;;;;;;;;;23.53;44.45;92226.97;5033918;28;7114;-69
2024/03/31 07:22:24;;;;;;;;;;;;;;;23.56;44.11;92277.28;5070560;28;7280;-65
2024/03/31 07:24:54;;;;;;;;;;;;;;;23.55;44.12;92229.19;5034859;28;9785;-62
2024/03/31 07:27:30;;;;;;;;;;;;;;;23.46;43.91;92229.72;5075047;28;7058;-64
2024/03/31 07:30:07;;;;;;;;;;;;;;;23.52;45.09;92213.81;5051028;28;6997;-64
2024/03/31 07:32:33;;;;;;;;;;;;;;;23.60;45.96;92222.75;5049652;28;7476;-64
2024/03/31 07:35:02;;;;;;;;;;;;;;;23.66;45.75;92217.84;5068539;28;7230;-62
2024/03/31 07:37:30;;;;;;;;;;;;;;;23.69;46.09;92219.47;5050432;28;7293;-61
2024/03/31 07:40:02;;;;;;;;;;;;;;;23.66;46.03;92215.81;5054400;28;7388;-64
2024/03/31 07:42:35;;;;;;;;;;;;;;;23.67;45.91;92219.28;5047135;28;7047;-61
2024/03/31 07:45:06;;;;;;;;;;;;;;;23.67;46.47;92197.34;5055371;28;6933;-66
2024/03/31 07:47:36;;;;;;;;;;;;;;;23.69;44.62;92208.50;5046530;28;9448;-66
2024/03/31 07:50:04;;;;;;;;;;;;;;;23.60;45.25;92209.03;5052321;28;7367;-62
2024/03/31 07:52:43;;;;;;;;;;;;;;;23.64;45.07;92229.34;5051247;28;7022;-62
2024/03/31 07:55:19;;;;;;;;;;;;;;;23.62;44.47;92222.97;5042161;28;7025;-62
2024/03/31 07:57:55;;;;;;;;;;;;;;;23.58;43.93;92261.00;5033166;28;7089;-62
2024/03/31 08:00:23;;;;;;;;;;;;;;;23.50;44.16;92208.16;5050500;28;7102;-62
2024/03/31 08:03:15;;;;;;;;;;;;;;;23.56;44.30;92225.16;5054754;28;7456;-62
2024/03/31 08:05:44;;;;;;;;;;;;;;;23.57;44.45;92212.91;5014662;28;7303;-62
2024/03/31 08:08:12;;;;;;;;;;;;;;;23.57;44.60;92224.63;5024758;28;7625;-62
2024/03/31 08:10:42;;;;;;;;;;;;;;;23.55;44.25;92220.97;5026882;28;7100;-62
2024/03/31 08:13:08;;;;;;;;;;;;;;;23.60;44.31;92225.50;5012514;28;8999;-62
2024/03/31 08:15:33;;;;;;;;;;;;;;;23.50;44.74;92197.16;5029654;28;7469;-62
2024/03/31 08:18:00;;;;;;;;;;;;;;;23.48;44.59;92200.47;5028288;28;9446;-62
2024/03/31 08:20:30;;;;;;;;;;;;;;;23.55;44.40;92197.00;5012481;28;7104;-62
2024/03/31 08:22:59;;;;;;;;;;;;;;;23.55;44.42;92207.97;5003972;28;7011;-62
2024/03/31 08:25:25;;;;;;;;;;;;;;;23.52;44.75;92200.84;5026591;28;7024;-62
2024/03/31 08:27:51;;;;;;;;;;;;;;;23.63;44.61;92213.44;5029663;28;7267;-62
2024/03/31 08:30:18;;;;;;;;;;;;;;;23.62;44.66;92209.25;5010913;28;7032;-62
2024/03/31 08:32:49;;;;;;;;;;;;;;;23.62;44.43;92212.00;5030695;28;8276;-59
2024/03/31 08:35:19;;;;;;;;;;;;;;;23.54;44.36;92200.28;5029221;28;7041;-59
2024/03/31 08:37:57;;;;;;;;;;;;;;;23.51;44.39;92217.84;5031463;28;7871;-59
2024/03/31 08:40:38;;;;;;;;;;;;;;;23.56;44.10;92225.16;5031773;28;8950;-59
2024/03/31 08:43:07;;;;;;;;;;;;;;;23.50;44.74;92205.41;5047738;28;9112;-59
2024/03/31 08:45:36;;;;;;;;;;;;;;;23.62;44.88;92225.72;5052351;28;7043;-59
2024/03/31 08:48:06;;;;;;;;;;;;;;;23.55;44.81;92220.97;5086289;28;7971;-59
2024/03/31 08:50:41;;;;;;;;;;;;;;;23.54;44.43;92216.75;5064246;28;7304;-59
2024/03/31 08:53:11;;;;;;;;;;;;;;;23.61;44.32;92211.25;5045421;28;7254;-59
2024/03/31 08:55:44;;;;;;;;;;;;;;;23.76;44.17;92233.19;5051863;28;9085;-59
2024/03/31 08:58:45;;;;;;;;;;;;;;;23.85;43.68;92251.13;5053261;28;9478;-59
2024/03/31 09:01:44;;;;;;;;;;;;;;;23.90;44.63;92252.97;4995452;28;7025;-59
2024/03/31 09:04:48;;;;;;;;;;;;;;;24.01;44.15;92227.13;4983713;28;7993;-59
2024/03/31 09:07:16;;;;;;;;;;;;;;;24.01;43.82;92230.63;4937497;29;9413;-59
2024/03/31 09:09:43;;;;;;;;;;;;;;;24.17;44.01;92237.56;4952907;29;7114;-59
2024/03/31 09:12:11;;;;;;;;;;;;;;;24.32;43.04;92236.78;4932274;28;7031;-59
2024/03/31 09:14:38;;;;;;;;;;;;;;;24.41;43.06;92223.22;4937834;29;7036;-59
2024/03/31 09:17:11;;;;;;;;;;;;;;;24.47;42.98;92207.25;4924395;29;7055;-59
2024/03/31 09:19:40;;;;;;;;;;;;;;;24.58;42.76;92203.34;4940943;29;7023;-59
2024/03/31 09:22:09;;;;;;;;;;;;;;;24.64;42.56;92210.09;4920950;29;7101;-59
2024/03/31 09:24:35;;;;;;;;;;;;;;;24.70;41.99;92218.16;4947951;29;7278;-59
2024/03/31 09:27:02;;;;;;;;;;;;;;;24.81;41.70;92215.03;4937135;29;7002;-59
2024/03/31 09:29:43;;;;;;;;;;;;;;;24.87;42.31;92231.28;4936390;29;7196;-59
2024/03/31 09:32:16;;;;;;;;;;;;;;;24.92;42.21;92213.88;4950040;28;7249;-59
2024/03/31 09:34:48;;;;;;;;;;;;;;;24.86;42.04;92196.84;4955870;28;7062;-59
2024/03/31 09:37:38;;;;;;;;;;;;;;;24.97;41.85;92216.38;4976880;28;9147;-59
2024/03/31 09:40:31;;;;;;;;;;;;;;;24.98;41.56;92203.38;4997080;28;7339;-59
2024/03/31 09:43:32;;;;;;;;;;;;;;;24.99;41.65;92207.59;5052529;28;7324;-63
2024/03/31 09:45:59;;;;;;;;;;;;;;;25.00;42.18;92226.28;4993304;28;7039;-63
2024/03/31 09:48:32;;;;;;;;;;;;;;;24.96;41.30;92216.97;4975700;28;7190;-63
2024/03/31 09:51:13;;;;;;;;;;;;;;;25.00;41.78;92217.28;4984514;28;7198;-63
2024/03/31 09:54:22;;;;;;;;;;;;;;;25.06;41.18;92226.06;4991669;28;7193;-64
2024/03/31 09:57:01;;;;;;;;;;;;;;;25.05;41.80;92230.09;4928229;29;7032;-63
2024/03/31 10:00:09;;;;;;;;;;;;;;;25.08;41.27;92248.97;4918018;29;7301;-63
2024/03/31 10:03:21;;;;;;;;;;;;;;;25.10;41.12;92240.19;4928436;29;9499;-63
2024/03/31 10:05:50;;;;;;;;;;;;;;;25.06;41.47;92245.31;4893196;29;7075;-63
2024/03/31 10:08:22;;;;;;;;;;;;;;;25.10;41.60;92218.16;4880302;29;7308;-64
2024/03/31 10:11:07;;;;;;;;;;;;;;;25.09;42.07;92225.69;4878706;29;7056;-63
2024/03/31 10:13:46;;;;;;;;;;;;;;;25.05;41.30;92221.84;4869462;29;7110;-64
2024/03/31 10:16:26;;;;;;;;;;;;;;;25.10;42.05;92229.88;4879518;29;7063;-64
2024/03/31 10:19:15;;;;;;;;;;;;;;;25.06;41.55;92209.56;4881831;29;7029;-64
2024/03/31 10:21:43;;;;;;;;;;;;;;;25.05;41.14;92217.09;4916114;29;7062;-63
2024/03/31 10:24:13;;;;;;;;;;;;;;;25.05;41.43;92219.84;4917105;29;7026;-63
2024/03/31 10:27:02;;;;;;;;;;;;;;;25.04;41.18;92228.63;4916995;29;9359;-63
2024/03/31 10:29:49;;;;;;;;;;;;;;;25.11;41.14;92225.13;4917519;29;7033;-63
2024/03/31 10:32:17;;;;;;;;;;;;;;;25.04;41.53;92217.63;4994508;28;7297;-63
2024/03/31 10:34:58;;;;;;;;;;;;;;;25.11;41.07;92219.63;4978534;28;7029;-63
2024/03/31 10:37:27;;;;;;;;;;;;;;;25.07;41.92;92233.03;5008140;28;8709;-64
2024/03/31 10:39:54;;;;;;;;;;;;;;;25.09;41.29;92228.44;5005086;28;9720;-64
2024/03/31 10:42:46;;;;;;;;;;;;;;;25.13;40.91;92226.03;5054147;28;7137;-64
2024/03/31 10:45:19;;;;;;;;;;;;;;;25.13;41.71;92230.78;5084579;28;7862;-64
2024/03/31 10:47:49;;;;;;;;;;;;;;;25.14;41.23;92224.00;5069854;28;8806;-64
2024/03/31 10:50:52;;;;;;;;;;;;;;;25.19;41.18;92245.06;5053695;28;7130;-64
2024/03/31 10:53:29;;;;;;;;;;;;;;;25.12;41.31;92243.09;5054712;28;8354;-63
2024/03/31 10:56:04;;;;;;;;;;;;;;;25.19;41.38;92256.78;5055481;28;9108;-62
2024/03/31 11:02:20;;;;;;;;;;;;;;;25.22;40.71;92235.69;5042365;28;7268;-62
2024/03/31 11:05:12;;;;;;;;;;;;;;;25.22;41.58;92227.44;5055103;28;7917;-62
2024/03/31 11:07:43;;;;;;;;;;;;;;;25.15;41.68;92209.69;5053625;28;7312;-62
2024/03/31 11:10:12;;;;;;;;;;;;;;;25.22;40.85;92216.44;5053488;28;7037;-63
2024/03/31 11:12:44;;;;;;;;;;;;;;;25.22;41.74;92225.44;5053736;28;7216;-62
2024/03/31 11:15:20;;;;;;;;;;;;;;;25.17;41.03;92206.38;5070449;28;7049;-62
2024/03/31 11:17:54;;;;;;;;;;;;;;;25.24;40.82;92202.84;5070360;28;7281;-62
2024/03/31 11:20:42;;;;;;;;;;;;;;;25.24;41.54;92189.81;5054470;28;7784;-62
2024/03/31 11:23:15;;;;;;;;;;;;;;;25.23;40.90;92173.84;5054689;28;7587;-62
2024/03/31 11:25:41;;;;;;;;;;;;;;;25.20;41.03;92175.72;5054658;28;7303;-62
2024/03/31 11:28:18;;;;;;;;;;;;;;;25.24;41.30;92189.09;5054715;28;7038;-63
2024/03/31 11:31:20;;;;;;;;;;;;;;;25.27;41.70;92179.72;5052520;28;7643;-63
2024/03/31 11:33:57;;;;;;;;;;;;;;;25.28;41.07;92161.91;4993387;28;7267;-62
2024/03/31 11:36:35;;;;;;;;;;;;;;;25.25;40.94;92160.31;4992936;28;7097;-62
2024/03/31 11:39:12;;;;;;;;;;;;;;;25.29;41.26;92174.38;4972554;28;7027;-62
2024/03/31 11:42:15;;;;;;;;;;;;;;;25.29;41.46;92174.38;4990336;28;7908;-62
2024/03/31 11:44:43;;;;;;;;;;;;;;;25.26;41.18;92181.00;4970524;28;7048;-62
2024/03/31 11:47:23;;;;;;;;;;;;;;;25.28;40.93;92190.16;4950472;28;7165;-62
2024/03/31 11:50:00;;;;;;;;;;;;;;;25.27;41.03;92188.69;4989590;28;7665;-62
2024/03/31 11:52:57;;;;;;;;;;;;;;;25.32;40.87;92192.50;4956471;28;9147;-62
2024/03/31 11:55:41;;;;;;;;;;;;;;;25.29;41.14;92193.66;4936751;29;7495;-62
2024/03/31 11:58:26;;;;;;;;;;;;;;;25.34;41.20;92193.41;4938049;28;9034;-62
2024/03/31 12:00:52;;;;;;;;;;;;;;;25.28;41.43;92178.41;4938331;28;7014;-62
2024/03/31 12:03:21;;;;;;;;;;;;;;;25.34;41.45;92198.19;4938460;28;7241;-60
2024/03/31 12:06:16;;;;;;;;;;;;;;;25.35;40.90;92218.91;4937021;28;7011;-60
2024/03/31 12:08:45;;;;;;;;;;;;;;;25.37;40.98;92224.59;4930492;28;6990;-60
2024/03/31 12:11:44;;;;;;;;;;;;;;;25.36;41.26;92225.88;4948922;28;7190;-60
2024/03/31 12:14:39;;;;;;;;;;;;;;;25.33;40.81;92224.25;4952851;28;7040;-60
2024/03/31 12:17:06;;;;;;;;;;;;;;;25.26;41.05;92214.03;4936692;28;7373;-60
2024/03/31 12:19:48;;;;;;;;;;;;;;;25.35;40.76;92216.16;4922060;29;7702;-60
2024/03/31 12:22:17;;;;;;;;;;;;;;;25.33;41.00;92208.47;4947306;29;7243;-60
2024/03/31 12:24:46;;;;;;;;;;;;;;;25.29;41.61;92218.41;4953708;28;9524;-60
2024/03/31 12:27:26;;;;;;;;;;;;;;;25.34;41.49;92211.94;4954344;28;8006;-60
2024/03/31 12:30:00;;;;;;;;;;;;;;;25.33;41.22;92218.75;4937269;29;7084;-60
2024/03/31 12:32:27;;;;;;;;;;;;;;;25.38;40.70;92217.81;4964941;28;7114;-60
2024/03/31 12:34:55;;;;;;;;;;;;;;;25.33;41.32;92202.97;4952174;28;7058;-60
2024/03/31 12:37:24;;;;;;;;;;;;;;;25.41;40.55;92214.66;4971153;28;7063;-60
2024/03/31 12:39:57;;;;;;;;;;;;;;;25.37;40.70;92197.81;4971109;28;6991;-60
2024/03/31 12:42:54;;;;;;;;;;;;;;;25.44;41.16;92201.81;4971639;28;7185;-60
2024/03/31 12:45:42;;;;;;;;;;;;;;;25.39;41.20;92172.47;4987172;28;7406;-60
2024/03/31 12:48:10;;;;;;;;;;;;;;;25.42;40.70;92188.59;5005822;28;8721;-60
2024/03/31 12:51:31;;;;;;;;;;;;;;;25.50;41.17;92187.81;4996279;28;7240;-60
2024/03/31 12:54:18;;;;;;;;;;;;;;;25.47;40.68;92178.66;4947184;29;7036;-60
2024/03/31 12:57:13;;;;;;;;;;;;;;;25.54;40.98;92188.16;4938579;28;7138;-60
2024/03/31 13:00:18;;;;;;;;;;;;;;;25.57;41.35;92176.75;4878778;29;7153;-60
2024/03/31 13:03:17;;;;;;;;;;;;;;;25.59;40.72;92171.41;4896018;29;7070;-60
2024/03/31 13:05:46;;;;;;;;;;;;;;;25.58;40.54;92169.25;4855466;29;7648;-60
2024/03/31 13:08:17;;;;;;;;;;;;;;;25.62;41.31;92167.53;4859917;29;7132;-60
2024/03/31 13:10:53;;;;;;;;;;;;;;;25.61;40.95;92166.06;4862178;29;7102;-60
2024/03/31 13:13:30;;;;;;;;;;;;;;;25.63;41.13;92162.75;4862252;29;7244;-68
2024/03/31 13:16:10;;;;;;;;;;;;;;;25.66;40.74;92173.38;4846864;29;7036;-68
2024/03/31 13:18:55;;;;;;;;;;;;;;;25.69;40.42;92188.75;4862590;29;7291;-69
2024/03/31 13:21:47;;;;;;;;;;;;;;;25.73;40.63;92189.09;4859955;29;8575;-69
2024/03/31 13:24:13;;;;;;;;;;;;;;;25.73;40.84;92189.09;4860802;29;7160;-69
2024/03/31 13:26:44;;;;;;;;;;;;;;;25.72;41.03;92178.66;4846851;29;7663;-69
2024/03/31 13:29:09;;;;;;;;;;;;;;;25.74;40.59;92168.53;4887361;29;7036;-69
2024/03/31 13:31:36;;;;;;;;;;;;;;;25.78;40.43;92170.88;4918218;29;7073;-68
2024/03/31 13:34:02;;;;;;;;;;;;;;;25.83;41.04;92176.16;4902866;29;9222;-69
2024/03/31 13:36:39;;;;;;;;;;;;;;;25.87;40.62;92175.75;4963848;28;7021;-69
2024/03/31 13:39:43;;;;;;;;;;;;;;;25.88;40.51;92180.69;4995272;28;7739;-68
2024/03/31 13:42:12;;;;;;;;;;;;;;;25.91;40.81;92184.34;4983184;28;7326;-69
2024/03/31 13:44:40;;;;;;;;;;;;;;;25.95;41.11;92193.66;5040840;28;7382;-69
2024/03/31 13:47:07;;;;;;;;;;;;;;;25.93;40.26;92193.50;5084188;28;9216;-69
2024/03/31 13:49:33;;;;;;;;;;;;;;;25.94;40.25;92177.72;5055505;28;7020;-69
2024/03/31 13:52:25;;;;;;;;;;;;;;;26.00;40.29;92191.97;5060445;28;7326;-69
2024/03/31 13:55:10;;;;;;;;;;;;;;;25.99;40.55;92185.00;5057742;28;7344;-68
2024/03/31 13:57:39;;;;;;;;;;;;;;;26.04;40.12;92189.53;5039179;28;6860;-69